SGAS/ASU METAR and TAF weather

Enter ICAO airport designator
Station Type Date Time Source
SGAS METAR 2020/09/26 11:00 UTC NOAA

SGAS 261100Z 05012KT CAVOK 29/12 Q1007


Station Type Date Time Source
SGAS Decoded METAR 2020/09/26 11:00 UTC NOAA

Asuncion / Aeropuerto, Paraguay (SGAS) 25-16S 057-38W 101M
Sep 26, 2020 - 07:00 AM EDT / 2020.09.26 1100 UTC
Wind: from the NE (050 degrees) at 14 MPH (12 KT):0
Visibility: greater than 7 mile(s):0
Temperature: 84 F (29 C)
Dew Point: 53 F (12 C)
Relative Humidity: 34%
Pressure (altimeter): 29.74 in. Hg (1007 hPa)
ob: SGAS 261100Z 05012KT CAVOK 29/12 Q1007
cycle: 11

Station Type Date Time Source
SGAS TAF 2020/09/26 12:39 UTC NOAA

TAF TAF SGAS 261040Z 2612/2712 05010KT CAVOK TX40/2619Z TN18/2709Z
BECMG 2615/2618 01015G20KT
BECMG 2621/2700 05015KT 7000 NSC
BECMG 2708/2711 05007KT CAVOK

Example: see airport list